createdAt,value
2023-04-17T00:00:28.968Z,29.17
2023-04-17T00:02:56.078Z,32.43
2023-04-17T00:05:26.819Z,32.30
2023-04-17T00:07:54.539Z,36.23
2023-04-17T00:10:21.570Z,35.27
2023-04-17T00:12:48.365Z,35.80
2023-04-17T00:15:15.284Z,33.10
2023-04-17T00:17:42.061Z,33.33
2023-04-17T00:20:12.577Z,31.93
2023-04-17T00:22:39.844Z,33.50
2023-04-17T00:25:07.575Z,31.77
2023-04-17T00:27:34.243Z,35.63
2023-04-17T00:30:01.783Z,33.90
2023-04-17T00:32:28.444Z,30.83
2023-04-17T00:34:55.979Z,31.57
2023-04-17T00:37:22.954Z,34.33
2023-04-17T00:39:49.769Z,33.67
2023-04-17T00:42:16.464Z,35.67
2023-04-17T00:44:43.174Z,37.30
2023-04-17T00:47:10.154Z,33.93
2023-04-17T00:49:36.929Z,36.13
2023-04-17T00:52:04.114Z,33.60
2023-04-17T00:54:31.943Z,31.93
2023-04-17T00:57:01.323Z,34.10
2023-04-17T00:59:28.794Z,33.17
2023-04-17T01:04:25.034Z,33.67
2023-04-17T01:06:53.413Z,37.23
2023-04-17T01:09:20.054Z,33.40
2023-04-17T01:11:46.611Z,35.37
2023-04-17T01:14:15.059Z,37.47
2023-04-17T01:16:42.248Z,31.73
2023-04-17T01:19:09.295Z,34.10
2023-04-17T01:21:35.992Z,32.13
2023-04-17T01:24:03.622Z,33.80
2023-04-17T01:26:32.380Z,33.23
2023-04-17T01:29:00.341Z,32.80
2023-04-17T01:31:28.994Z,38.90
2023-04-17T01:33:56.306Z,35.23
2023-04-17T01:36:22.898Z,34.67
2023-04-17T01:38:49.484Z,39.17
2023-04-17T01:41:16.118Z,37.10
2023-04-17T01:43:45.105Z,38.87
2023-04-17T01:46:12.555Z,38.67
2023-04-17T01:48:39.789Z,39.37
2023-04-17T01:51:06.531Z,37.43
2023-04-17T01:53:34.416Z,35.80
2023-04-17T01:56:02.052Z,40.23
2023-04-17T01:58:29.051Z,40.23
2023-04-17T02:00:55.907Z,36.00
2023-04-17T02:03:24.535Z,39.03
2023-04-17T02:05:53.185Z,39.33
2023-04-17T02:08:19.896Z,37.73
2023-04-17T02:10:46.525Z,45.37
2023-04-17T02:13:13.098Z,41.27
2023-04-17T02:15:40.550Z,40.00
2023-04-17T02:18:07.287Z,41.90
2023-04-17T02:20:34.570Z,45.37
2023-04-17T02:23:02.956Z,39.20
2023-04-17T02:25:29.832Z,42.30
2023-04-17T02:27:56.839Z,44.23
2023-04-17T02:30:25.957Z,43.77
2023-04-17T02:32:54.649Z,39.07
2023-04-17T02:35:23.087Z,42.37
2023-04-17T02:37:49.828Z,39.03
2023-04-17T02:40:17.017Z,39.00
2023-04-17T02:42:43.568Z,38.47
2023-04-17T02:45:11.199Z,43.87
2023-04-17T02:47:39.019Z,41.40
2023-04-17T02:50:06.343Z,41.10
2023-04-17T02:52:33.511Z,44.83
2023-04-17T02:55:00.246Z,44.70
2023-04-17T02:57:26.813Z,42.60
2023-04-17T02:59:55.635Z,41.60
2023-04-17T03:02:22.450Z,44.27
2023-04-17T03:04:50.612Z,43.53
2023-04-17T03:07:20.658Z,43.47
2023-04-17T03:09:48.112Z,44.13
2023-04-17T03:12:16.057Z,42.30
2023-04-17T03:14:43.372Z,42.83
2023-04-17T03:17:11.936Z,41.57
2023-04-17T03:19:38.549Z,44.03
2023-04-17T03:22:05.895Z,44.10
2023-04-17T03:24:33.006Z,41.90
2023-04-17T03:27:00.491Z,44.20
2023-04-17T03:29:29.987Z,44.77
2023-04-17T03:31:56.620Z,43.10
2023-04-17T03:34:23.847Z,43.50
2023-04-17T03:36:50.631Z,40.77
2023-04-17T03:39:17.247Z,48.97
2023-04-17T03:41:44.015Z,42.17
2023-04-17T03:44:11.076Z,40.73
2023-04-17T03:46:38.084Z,43.70
2023-04-17T03:49:05.177Z,43.43
2023-04-17T03:51:32.074Z,44.60
2023-04-17T03:53:58.732Z,39.67
2023-04-17T03:56:25.955Z,45.77
2023-04-17T03:58:53.053Z,44.97
2023-04-17T04:01:19.837Z,45.47
2023-04-17T04:03:46.697Z,41.80
2023-04-17T04:06:13.782Z,44.67
2023-04-17T04:08:41.058Z,45.37
2023-04-17T04:11:07.647Z,44.97
2023-04-17T04:13:34.364Z,48.80
2023-04-17T04:16:01.277Z,42.23
2023-04-17T04:18:27.965Z,43.53
2023-04-17T04:20:54.602Z,46.80
2023-04-17T04:23:21.384Z,42.93
2023-04-17T04:25:49.756Z,46.80
2023-04-17T04:28:17.936Z,46.80
2023-04-17T04:30:50.752Z,42.23
2023-04-17T04:33:20.587Z,46.30
2023-04-17T04:35:52.109Z,43.30
2023-04-17T04:38:18.735Z,48.10
2023-04-17T04:40:52.585Z,45.20
2023-04-17T04:43:22.152Z,47.53
2023-04-17T04:45:49.089Z,45.57
2023-04-17T04:48:16.159Z,51.57
2023-04-17T04:50:42.741Z,44.73
2023-04-17T04:53:09.372Z,42.60
2023-04-17T04:55:35.977Z,42.83
2023-04-17T04:58:02.607Z,44.73
2023-04-17T05:00:29.622Z,46.77
2023-04-17T05:02:56.417Z,43.70
2023-04-17T05:05:23.595Z,42.80
2023-04-17T05:07:50.140Z,42.43
2023-04-17T05:40:42.539Z,40.17
2023-04-17T05:43:11.287Z,45.20
2023-04-17T05:45:38.400Z,42.37
2023-04-17T05:48:05.204Z,41.70
2023-04-17T05:50:32.046Z,42.93
2023-04-17T05:52:58.793Z,44.53
2023-04-17T05:55:25.457Z,41.40
2023-04-17T05:57:52.078Z,40.10
2023-04-17T06:00:18.911Z,40.40
2023-04-17T06:02:45.726Z,41.43
2023-04-17T06:28:02.234Z,40.17
2023-04-17T06:30:28.853Z,41.23
2023-04-17T06:32:55.850Z,42.50
2023-04-17T06:35:22.661Z,40.37
2023-04-17T06:37:49.238Z,42.27
2023-04-17T06:40:15.913Z,40.33
2023-04-17T06:42:42.532Z,46.07
2023-04-17T06:45:09.518Z,42.77
2023-04-17T06:47:36.311Z,39.87
2023-04-17T06:50:02.970Z,41.37
2023-04-17T06:52:29.746Z,40.87
2023-04-17T06:54:56.800Z,44.20
2023-04-17T06:57:23.551Z,39.07
2023-04-17T06:59:50.165Z,41.70
2023-04-17T07:02:18.001Z,44.30
2023-04-17T07:04:47.314Z,40.37
2023-04-17T07:07:14.117Z,40.33
2023-04-17T07:09:41.884Z,42.47
2023-04-17T07:12:08.750Z,37.87
2023-04-17T07:14:35.616Z,39.93
2023-04-17T07:17:02.896Z,40.87
2023-04-17T07:19:29.515Z,38.30
2023-04-17T07:21:56.535Z,44.33
2023-04-17T07:24:23.321Z,41.53
2023-04-17T07:26:49.998Z,41.40
2023-04-17T07:29:16.714Z,45.77
2023-04-17T07:31:43.921Z,49.33
2023-04-17T07:34:10.676Z,44.23
2023-04-17T07:36:37.390Z,42.57
2023-04-17T07:39:04.308Z,45.80
2023-04-17T07:41:30.996Z,50.83
2023-04-17T07:43:59.087Z,45.70
2023-04-17T07:46:26.340Z,47.53
2023-04-17T07:48:52.995Z,42.83
2023-04-17T07:51:19.991Z,45.37
2023-04-17T07:53:46.640Z,43.57
2023-04-17T07:56:13.370Z,49.40
2023-04-17T07:58:40.072Z,47.50
2023-04-17T08:01:06.874Z,47.30
2023-04-17T08:03:33.972Z,44.00
2023-04-17T08:06:01.080Z,48.47
2023-04-17T08:08:27.913Z,46.50
2023-04-17T08:10:54.566Z,49.73
2023-04-17T08:13:24.216Z,51.43
2023-04-17T08:15:52.318Z,47.00
2023-04-17T08:18:19.005Z,49.37
2023-04-17T08:20:45.810Z,45.73
2023-04-17T08:23:12.488Z,45.60
2023-04-17T08:25:39.160Z,45.53
2023-04-17T08:28:06.019Z,45.87
2023-04-17T08:30:32.770Z,49.53
2023-04-17T08:32:59.414Z,48.47
2023-04-17T08:35:26.835Z,50.13
2023-04-17T08:37:55.616Z,44.83
2023-04-17T08:40:24.423Z,48.67
2023-04-17T08:42:54.333Z,48.70
2023-04-17T08:45:24.403Z,53.37
2023-04-17T08:47:51.275Z,44.23
2023-04-17T08:50:20.877Z,46.33
2023-04-17T08:52:52.139Z,48.43
2023-04-17T08:55:25.557Z,46.13
2023-04-17T08:58:06.872Z,42.73
2023-04-17T09:00:36.214Z,45.00
2023-04-17T09:03:09.974Z,43.30
2023-04-17T09:05:38.448Z,41.23
2023-04-17T09:08:11.543Z,45.20
2023-04-17T09:10:46.802Z,42.70
2023-04-17T09:13:15.864Z,40.40
2023-04-17T09:15:44.298Z,38.77
2023-04-17T09:18:32.946Z,38.47
2023-04-17T09:21:04.202Z,37.70
2023-04-17T09:23:45.608Z,36.10
2023-04-17T09:26:14.138Z,35.77
2023-04-17T09:28:41.727Z,37.73
2023-04-17T09:31:17.566Z,36.43
2023-04-17T09:33:59.773Z,30.53
2023-04-17T09:36:27.648Z,33.00
2023-04-17T09:38:54.785Z,35.90
2023-04-17T09:41:29.305Z,32.13
2023-04-17T09:44:02.251Z,30.07
2023-04-17T09:46:46.298Z,31.97
2023-04-17T09:49:24.394Z,29.13
2023-04-17T09:51:52.629Z,32.90
2023-04-17T09:54:20.503Z,29.07
2023-04-17T09:56:50.305Z,24.73
2023-04-17T09:59:17.493Z,24.77
2023-04-17T10:01:44.584Z,23.87
2023-04-17T10:04:12.261Z,21.87
2023-04-17T10:06:39.291Z,19.60
2023-04-17T10:09:06.259Z,20.77
2023-04-17T10:11:39.145Z,18.63
2023-04-17T10:14:11.993Z,19.23
2023-04-17T10:16:40.311Z,21.00
2023-04-17T10:19:29.632Z,23.40
2023-04-17T10:22:14.481Z,15.67
2023-04-17T10:24:43.713Z,22.57
2023-04-17T10:27:33.646Z,17.27
2023-04-17T10:30:02.347Z,15.60
2023-04-17T10:32:30.224Z,14.43
2023-04-17T10:34:59.323Z,16.50
2023-04-17T10:37:47.815Z,16.20
2023-04-17T10:40:21.577Z,14.77
2023-04-17T10:43:11.336Z,15.43
2023-04-17T10:46:04.275Z,16.43
2023-04-17T10:48:46.675Z,15.07
2023-04-17T10:51:40.445Z,15.07
2023-04-17T10:54:10.557Z,14.30
2023-04-17T10:56:47.557Z,13.83
2023-04-17T10:59:16.792Z,11.83
2023-04-17T11:01:50.288Z,14.60
2023-04-17T11:04:27.074Z,15.23
2023-04-17T11:06:55.633Z,13.97
2023-04-17T11:09:24.321Z,12.70
2023-04-17T11:11:54.594Z,12.33
2023-04-17T11:14:23.629Z,14.67
2023-04-17T11:16:51.901Z,14.33
2023-04-17T11:19:21.554Z,13.70
2023-04-17T11:21:50.462Z,16.57
2023-04-17T11:24:24.649Z,13.00
2023-04-17T11:26:51.710Z,12.67
2023-04-17T11:29:21.222Z,13.60
2023-04-17T11:31:49.397Z,14.37
2023-04-17T11:34:17.236Z,9.50
2023-04-17T11:36:57.757Z,11.53
2023-04-17T11:39:26.663Z,14.20
2023-04-17T11:41:53.548Z,11.87
2023-04-17T11:49:27.917Z,12.13
2023-04-17T11:52:01.710Z,12.13
2023-04-17T11:54:28.962Z,10.77
2023-04-17T11:56:59.601Z,12.97
2023-04-17T11:59:39.690Z,12.07
2023-04-17T12:02:08.658Z,9.20
2023-04-17T12:04:37.860Z,10.70
2023-04-17T12:07:06.007Z,11.30
2023-04-17T12:09:33.993Z,8.97
2023-04-17T12:12:03.972Z,11.97
2023-04-17T12:14:30.981Z,9.30
2023-04-17T12:16:57.698Z,10.30
2023-04-17T12:19:26.924Z,10.20
2023-04-17T12:21:54.611Z,11.03
2023-04-17T12:24:24.317Z,15.30
2023-04-17T12:26:51.940Z,11.13
2023-04-17T12:29:26.451Z,12.30
2023-04-17T12:31:59.556Z,12.40
2023-04-17T12:34:27.778Z,11.63
2023-04-17T12:36:54.776Z,10.50
2023-04-17T12:39:21.459Z,11.53
2023-04-17T12:41:48.190Z,13.43
2023-04-17T12:44:15.189Z,9.80
2023-04-17T12:46:42.248Z,12.27
2023-04-17T12:49:09.083Z,10.00
2023-04-17T12:51:38.148Z,8.63
2023-04-17T12:54:05.306Z,9.83
2023-04-17T12:56:32.856Z,12.87
2023-04-17T12:59:02.683Z,11.37
2023-04-17T13:01:30.042Z,12.43
2023-04-17T13:03:56.988Z,8.20
2023-04-17T13:06:23.949Z,8.00
2023-04-17T13:08:50.830Z,8.03
2023-04-17T13:11:17.536Z,15.90
2023-04-17T13:13:44.604Z,10.20
2023-04-17T13:16:11.332Z,10.07
2023-04-17T13:18:37.994Z,10.23
2023-04-17T13:21:04.789Z,7.67
2023-04-17T13:23:31.402Z,12.83
2023-04-17T13:25:58.031Z,9.80
2023-04-17T13:28:24.709Z,7.17
2023-04-17T13:30:51.365Z,10.07
2023-04-17T13:33:17.972Z,11.43
2023-04-17T13:35:44.609Z,9.53
2023-04-17T13:38:11.214Z,9.63
2023-04-17T13:40:38.703Z,9.73
2023-04-17T13:43:06.795Z,10.50
2023-04-17T13:45:33.559Z,14.33
2023-04-17T13:48:00.459Z,8.43
2023-04-17T13:50:27.495Z,12.97
2023-04-17T13:52:54.185Z,11.23
2023-04-17T13:55:20.787Z,10.27
2023-04-17T13:57:47.622Z,13.87
2023-04-17T14:00:14.771Z,12.17
2023-04-17T14:02:41.638Z,10.77
2023-04-17T14:05:08.779Z,11.37
2023-04-17T14:07:35.534Z,9.97
2023-04-17T14:10:02.164Z,10.73
2023-04-17T14:12:28.792Z,13.13
2023-04-17T14:14:56.568Z,11.43
2023-04-17T14:17:24.730Z,10.97
2023-04-17T14:19:52.709Z,10.90
2023-04-17T14:22:29.245Z,10.53
2023-04-17T14:24:55.770Z,11.63
2023-04-17T14:27:22.242Z,10.47
2023-04-17T14:29:48.716Z,9.13
2023-04-17T14:32:15.260Z,8.93
2023-04-17T14:34:41.743Z,6.60
2023-04-17T14:37:08.200Z,11.20
2023-04-17T14:39:35.770Z,10.13
2023-04-17T14:42:02.558Z,9.07
2023-04-17T14:44:29.172Z,10.60
2023-04-17T14:46:57.052Z,10.73
2023-04-17T14:49:23.807Z,7.93
2023-04-17T14:51:50.309Z,9.90
2023-04-17T14:54:16.861Z,10.90
2023-04-17T14:56:43.380Z,10.87
2023-04-17T14:59:09.907Z,10.57
2023-04-17T15:01:36.603Z,10.83
2023-04-17T15:04:03.995Z,12.20
2023-04-17T15:06:30.729Z,8.60
2023-04-17T15:08:57.273Z,11.97
2023-04-17T15:11:23.804Z,11.57
2023-04-17T15:13:50.344Z,11.17
2023-04-17T15:16:16.842Z,8.47
2023-04-17T15:18:43.411Z,9.47
2023-04-17T15:21:09.954Z,9.87
2023-04-17T15:23:36.443Z,11.93
2023-04-17T15:26:02.995Z,10.17
2023-04-17T15:48:54.979Z,11.50
2023-04-17T15:51:31.742Z,9.37
2023-04-17T15:53:58.246Z,10.40
2023-04-17T15:56:24.841Z,11.87
2023-04-17T15:58:51.745Z,16.33
2023-04-17T16:01:18.247Z,9.07
2023-04-17T16:03:44.873Z,10.83
2023-04-17T16:06:11.521Z,14.17
2023-04-17T16:08:38.048Z,9.57
2023-04-17T16:11:04.714Z,9.40
2023-04-17T16:13:31.233Z,9.27
2023-04-17T16:15:57.750Z,13.23
2023-04-17T16:18:24.256Z,8.40
2023-04-17T16:20:50.824Z,9.33
2023-04-17T16:23:17.373Z,10.43
2023-04-17T16:25:43.864Z,10.33
2023-04-17T16:28:10.355Z,9.77
2023-04-17T16:30:36.875Z,11.90
2023-04-17T16:33:04.170Z,12.43
2023-04-17T16:35:30.621Z,8.87
2023-04-17T16:37:57.122Z,9.63
2023-04-17T16:40:23.604Z,8.33
2023-04-17T16:42:50.485Z,9.67
2023-04-17T16:45:17.018Z,10.13
2023-04-17T16:47:43.549Z,8.20
2023-04-17T16:50:11.677Z,9.57
2023-04-17T16:52:39.013Z,7.80
2023-04-17T16:55:06.386Z,12.70
2023-04-17T16:57:32.876Z,9.10
2023-04-17T16:59:59.358Z,11.33
2023-04-17T17:02:25.940Z,13.53
2023-04-17T17:04:52.940Z,15.00
2023-04-17T17:07:19.413Z,10.13
2023-04-17T17:09:45.877Z,8.27
2023-04-17T17:12:12.643Z,8.00
2023-04-17T17:14:39.106Z,11.23
2023-04-17T17:17:05.953Z,9.43
2023-04-17T17:19:32.588Z,12.10
2023-04-17T17:21:59.101Z,9.03
2023-04-17T17:24:25.610Z,9.27
2023-04-17T17:26:52.179Z,8.80
2023-04-17T17:29:18.655Z,10.10
2023-04-17T17:31:45.348Z,9.93
2023-04-17T17:34:25.557Z,11.33
2023-04-17T17:36:53.410Z,10.13
2023-04-17T17:39:21.297Z,9.63
2023-04-17T17:41:48.062Z,13.53
2023-04-17T17:44:14.957Z,8.13
2023-04-17T17:46:41.721Z,13.40
2023-04-17T17:49:08.482Z,12.10
2023-04-17T17:51:34.953Z,9.10
2023-04-17T17:54:01.513Z,9.53
2023-04-17T17:56:28.626Z,9.00
2023-04-17T17:58:55.118Z,11.77
2023-04-17T18:01:23.638Z,11.60
2023-04-17T18:03:50.430Z,10.07
2023-04-17T18:06:17.129Z,11.57
2023-04-17T18:08:43.706Z,11.13
2023-04-17T18:11:10.195Z,11.30
2023-04-17T18:13:36.695Z,11.67
2023-04-17T18:16:04.203Z,9.77
2023-04-17T18:18:30.840Z,11.83
2023-04-17T18:20:57.339Z,13.07
2023-04-17T18:23:23.848Z,13.27
2023-04-17T18:25:57.807Z,9.77
2023-04-17T18:28:24.504Z,10.83
2023-04-17T18:30:51.077Z,11.90
2023-04-17T18:33:17.627Z,11.50
2023-04-17T18:35:44.148Z,11.70
2023-04-17T18:38:10.815Z,9.67
2023-04-17T18:40:37.284Z,10.07
2023-04-17T18:43:06.620Z,12.13
2023-04-17T18:45:33.089Z,9.83
2023-04-17T18:47:59.684Z,13.60
2023-04-17T18:50:27.083Z,13.17
2023-04-17T18:52:53.615Z,12.17
2023-04-17T18:55:20.189Z,9.73
2023-04-17T18:57:46.701Z,11.63
2023-04-17T19:00:13.359Z,9.90
2023-04-17T19:02:40.860Z,13.13
2023-04-17T19:05:07.756Z,15.70
2023-04-17T19:07:34.294Z,8.93
2023-04-17T19:10:01.018Z,11.67
2023-04-17T19:12:27.572Z,11.70
2023-04-17T19:14:54.195Z,10.90
2023-04-17T19:17:22.967Z,10.63
2023-04-17T19:19:49.458Z,11.90
2023-04-17T19:22:18.046Z,11.23
2023-04-17T19:24:46.700Z,13.90
2023-04-17T19:27:13.169Z,12.13
2023-04-17T19:29:42.117Z,13.30
2023-04-17T19:32:08.820Z,14.53
2023-04-17T19:34:35.341Z,13.40
2023-04-17T19:37:01.861Z,12.13
2023-04-17T19:39:28.435Z,11.40
2023-04-17T19:41:54.964Z,12.97
2023-04-17T19:44:21.570Z,10.03
2023-04-17T19:46:48.073Z,13.13
2023-04-17T19:49:15.805Z,13.93
2023-04-17T19:51:42.324Z,10.73
2023-04-17T19:54:10.084Z,12.00
2023-04-17T19:56:36.543Z,11.63
2023-04-17T19:59:03.332Z,11.57
2023-04-17T20:01:30.308Z,14.27
2023-04-17T20:03:57.115Z,11.53
2023-04-17T20:06:23.779Z,13.17
2023-04-17T20:08:50.389Z,13.17
2023-04-17T20:11:16.854Z,13.40
2023-04-17T20:13:43.367Z,10.47
2023-04-17T20:16:09.873Z,10.70
2023-04-17T20:18:37.498Z,10.50
2023-04-17T20:21:06.020Z,12.00
2023-04-17T20:23:32.706Z,12.37
2023-04-17T20:25:59.229Z,15.23
2023-04-17T20:28:28.916Z,12.67
2023-04-17T20:30:55.789Z,12.97
2023-04-17T20:33:22.417Z,14.27
2023-04-17T20:35:48.946Z,13.37
2023-04-17T20:38:15.585Z,16.93
2023-04-17T20:40:42.134Z,13.40
2023-04-17T20:43:08.780Z,12.50
2023-04-17T20:45:35.421Z,12.47
2023-04-17T20:48:02.159Z,11.37
2023-04-17T20:50:28.867Z,15.23
2023-04-17T20:52:55.392Z,11.63
2023-04-17T20:55:21.904Z,12.93
2023-04-17T20:57:48.460Z,13.40
2023-04-17T21:00:20.262Z,13.40
2023-04-17T21:02:46.911Z,11.73
2023-04-17T21:05:13.503Z,14.83
2023-04-17T21:07:40.007Z,12.83
2023-04-17T21:10:06.771Z,13.53
2023-04-17T21:12:35.249Z,11.13
2023-04-17T21:15:02.244Z,16.73
2023-04-17T21:17:28.828Z,14.73
2023-04-17T21:19:58.419Z,12.17
2023-04-17T21:22:24.935Z,12.63
2023-04-17T21:24:51.415Z,13.57
2023-04-17T21:27:17.929Z,11.00
2023-04-17T21:29:44.723Z,13.93
2023-04-17T21:32:11.216Z,10.93
2023-04-17T21:34:37.678Z,15.43
2023-04-17T21:37:09.296Z,12.03
2023-04-17T21:39:35.876Z,14.97
2023-04-17T21:42:04.478Z,10.77
2023-04-17T21:44:33.756Z,16.03
2023-04-17T21:47:00.294Z,12.53
2023-04-17T21:49:26.787Z,13.63
2023-04-17T21:51:53.314Z,13.10
2023-04-17T21:54:20.217Z,13.73
2023-04-17T21:56:46.754Z,14.60
2023-04-17T21:59:13.551Z,14.20
2023-04-17T22:01:40.048Z,13.43
2023-04-17T22:04:06.580Z,14.30
2023-04-17T22:06:36.950Z,9.00
2023-04-17T22:09:04.858Z,13.70
2023-04-17T22:11:31.488Z,11.13
2023-04-17T22:13:57.979Z,10.43
2023-04-17T22:16:24.717Z,10.20
2023-04-17T22:18:51.270Z,11.77
2023-04-17T22:21:17.739Z,15.43
2023-04-17T22:23:44.839Z,12.77
2023-04-17T22:26:11.568Z,10.90
2023-04-17T22:28:38.054Z,11.30
2023-04-17T22:31:05.381Z,9.77
2023-04-17T22:33:31.888Z,11.73
2023-04-17T22:35:58.382Z,11.03
2023-04-17T22:38:25.002Z,11.73
2023-04-17T22:40:51.460Z,8.67
2023-04-17T22:43:17.986Z,10.07
2023-04-17T22:45:44.563Z,9.60
2023-04-17T22:48:11.410Z,13.80
2023-04-17T22:50:38.293Z,14.00
2023-04-17T22:53:05.147Z,11.30
2023-04-17T22:55:31.688Z,10.23
2023-04-17T22:57:58.324Z,8.83
2023-04-17T23:00:25.532Z,14.70
2023-04-17T23:02:52.486Z,11.57
2023-04-17T23:05:19.206Z,10.27
2023-04-17T23:07:45.728Z,11.00
2023-04-17T23:10:12.257Z,12.03
2023-04-17T23:12:38.748Z,12.30
2023-04-17T23:15:06.087Z,11.43
2023-04-17T23:17:33.317Z,9.37
2023-04-17T23:20:00.312Z,9.03
2023-04-17T23:22:26.805Z,8.37
2023-04-17T23:24:53.647Z,9.90
2023-04-17T23:27:20.225Z,8.50
2023-04-17T23:29:46.675Z,12.83
2023-04-17T23:32:13.150Z,7.40
2023-04-17T23:34:39.635Z,9.20
2023-04-17T23:37:06.138Z,8.00
2023-04-17T23:45:51.528Z,8.40
2023-04-17T23:48:17.994Z,8.87
2023-04-17T23:50:45.528Z,10.80
2023-04-17T23:53:12.079Z,11.17
2023-04-17T23:55:38.564Z,8.93
2023-04-17T23:58:05.074Z,8.43
